sensor_id;sensor_type;location;lat;lon;timestamp;P1;durP1;ratioP1;P2;durP2;ratioP2
44606;SDS011;30315;46.072;14.474;2023-01-31T00:01:34;51.30;;;31.17;;
44606;SDS011;30315;46.072;14.474;2023-01-31T00:06:34;53.28;;;30.17;;
44606;SDS011;30315;46.072;14.474;2023-01-31T00:09:07;47.88;;;29.35;;
44606;SDS011;30315;46.072;14.474;2023-01-31T00:11:35;51.53;;;29.55;;
44606;SDS011;30315;46.072;14.474;2023-01-31T00:14:03;50.33;;;29.90;;
44606;SDS011;30315;46.072;14.474;2023-01-31T00:16:31;48.47;;;29.58;;
44606;SDS011;30315;46.072;14.474;2023-01-31T00:18:59;49.28;;;30.17;;
44606;SDS011;30315;46.072;14.474;2023-01-31T00:21:27;48.05;;;30.50;;
44606;SDS011;30315;46.072;14.474;2023-01-31T00:23:55;50.03;;;30.45;;
44606;SDS011;30315;46.072;14.474;2023-01-31T00:26:23;48.70;;;28.30;;
44606;SDS011;30315;46.072;14.474;2023-01-31T00:28:51;46.65;;;27.52;;
44606;SDS011;30315;46.072;14.474;2023-01-31T00:31:20;46.83;;;29.10;;
44606;SDS011;30315;46.072;14.474;2023-01-31T00:33:49;42.55;;;27.55;;
44606;SDS011;30315;46.072;14.474;2023-01-31T00:36:18;44.40;;;27.40;;
44606;SDS011;30315;46.072;14.474;2023-01-31T00:38:48;47.88;;;28.02;;
44606;SDS011;30315;46.072;14.474;2023-01-31T00:41:17;49.28;;;28.60;;
44606;SDS011;30315;46.072;14.474;2023-01-31T00:43:45;43.15;;;25.92;;
44606;SDS011;30315;46.072;14.474;2023-01-31T00:46:12;46.50;;;27.85;;
44606;SDS011;30315;46.072;14.474;2023-01-31T00:48:39;45.03;;;26.45;;
44606;SDS011;30315;46.072;14.474;2023-01-31T00:51:06;46.03;;;27.77;;
44606;SDS011;30315;46.072;14.474;2023-01-31T00:53:33;41.90;;;25.58;;
44606;SDS011;30315;46.072;14.474;2023-01-31T00:56:02;40.28;;;25.25;;
44606;SDS011;30315;46.072;14.474;2023-01-31T00:58:33;41.50;;;25.90;;
44606;SDS011;30315;46.072;14.474;2023-01-31T01:03:34;52.63;;;30.23;;
44606;SDS011;30315;46.072;14.474;2023-01-31T01:06:02;40.78;;;26.05;;
44606;SDS011;30315;46.072;14.474;2023-01-31T01:08:30;43.20;;;27.40;;
44606;SDS011;30315;46.072;14.474;2023-01-31T01:11:09;45.90;;;28.95;;
44606;SDS011;30315;46.072;14.474;2023-01-31T01:13:36;45.60;;;26.63;;
44606;SDS011;30315;46.072;14.474;2023-01-31T01:16:08;44.08;;;28.33;;
44606;SDS011;30315;46.072;14.474;2023-01-31T01:18:37;48.90;;;29.15;;
44606;SDS011;30315;46.072;14.474;2023-01-31T01:21:08;48.03;;;29.38;;
44606;SDS011;30315;46.072;14.474;2023-01-31T01:23:37;44.17;;;27.80;;
44606;SDS011;30315;46.072;14.474;2023-01-31T01:26:11;46.00;;;27.50;;
44606;SDS011;30315;46.072;14.474;2023-01-31T01:28:42;42.97;;;26.08;;
44606;SDS011;30315;46.072;14.474;2023-01-31T01:31:10;45.25;;;27.63;;
44606;SDS011;30315;46.072;14.474;2023-01-31T01:33:39;46.33;;;26.80;;
44606;SDS011;30315;46.072;14.474;2023-01-31T01:36:07;45.13;;;26.85;;
44606;SDS011;30315;46.072;14.474;2023-01-31T01:38:40;45.78;;;27.73;;
44606;SDS011;30315;46.072;14.474;2023-01-31T01:41:08;39.58;;;25.80;;
44606;SDS011;30315;46.072;14.474;2023-01-31T01:46:16;47.67;;;27.80;;
44606;SDS011;30315;46.072;14.474;2023-01-31T01:48:44;42.47;;;26.85;;
44606;SDS011;30315;46.072;14.474;2023-01-31T01:51:14;49.80;;;28.67;;
44606;SDS011;30315;46.072;14.474;2023-01-31T01:53:45;44.28;;;27.65;;
44606;SDS011;30315;46.072;14.474;2023-01-31T01:56:17;44.28;;;27.13;;
44606;SDS011;30315;46.072;14.474;2023-01-31T01:58:58;51.90;;;29.80;;
44606;SDS011;30315;46.072;14.474;2023-01-31T02:01:31;47.60;;;28.50;;
44606;SDS011;30315;46.072;14.474;2023-01-31T02:04:08;47.50;;;28.35;;
44606;SDS011;30315;46.072;14.474;2023-01-31T02:06:41;47.95;;;28.83;;
44606;SDS011;30315;46.072;14.474;2023-01-31T02:09:10;46.13;;;28.02;;
44606;SDS011;30315;46.072;14.474;2023-01-31T02:11:54;44.92;;;27.05;;
44606;SDS011;30315;46.072;14.474;2023-01-31T02:14:21;47.67;;;27.48;;
44606;SDS011;30315;46.072;14.474;2023-01-31T02:20:24;42.65;;;25.92;;
44606;SDS011;30315;46.072;14.474;2023-01-31T02:22:50;39.58;;;23.95;;
44606;SDS011;30315;46.072;14.474;2023-01-31T02:25:51;37.97;;;24.53;;
44606;SDS011;30315;46.072;14.474;2023-01-31T02:31:46;33.03;;;21.13;;
44606;SDS011;30315;46.072;14.474;2023-01-31T02:35:09;32.92;;;21.45;;
44606;SDS011;30315;46.072;14.474;2023-01-31T02:37:35;33.22;;;20.60;;
44606;SDS011;30315;46.072;14.474;2023-01-31T02:46:05;33.05;;;21.20;;
44606;SDS011;30315;46.072;14.474;2023-01-31T02:48:55;32.88;;;21.23;;
44606;SDS011;30315;46.072;14.474;2023-01-31T02:51:31;36.83;;;20.75;;
44606;SDS011;30315;46.072;14.474;2023-01-31T02:54:08;29.58;;;20.02;;
44606;SDS011;30315;46.072;14.474;2023-01-31T02:56:41;29.45;;;19.98;;
44606;SDS011;30315;46.072;14.474;2023-01-31T02:59:15;32.33;;;20.40;;
44606;SDS011;30315;46.072;14.474;2023-01-31T03:02:00;32.15;;;19.33;;
44606;SDS011;30315;46.072;14.474;2023-01-31T03:06:57;34.65;;;21.67;;
44606;SDS011;30315;46.072;14.474;2023-01-31T03:12:49;31.52;;;18.90;;
44606;SDS011;30315;46.072;14.474;2023-01-31T03:18:58;27.73;;;17.70;;
44606;SDS011;30315;46.072;14.474;2023-01-31T03:24:16;23.23;;;15.93;;
44606;SDS011;30315;46.072;14.474;2023-01-31T03:26:47;16.75;;;12.10;;
44606;SDS011;30315;46.072;14.474;2023-01-31T03:29:15;18.92;;;13.85;;
44606;SDS011;30315;46.072;14.474;2023-01-31T03:32:27;18.58;;;13.73;;
44606;SDS011;30315;46.072;14.474;2023-01-31T03:34:55;22.08;;;14.63;;
44606;SDS011;30315;46.072;14.474;2023-01-31T03:37:40;22.00;;;14.40;;
44606;SDS011;30315;46.072;14.474;2023-01-31T03:40:29;22.23;;;15.20;;
44606;SDS011;30315;46.072;14.474;2023-01-31T03:43:24;19.27;;;13.13;;
44606;SDS011;30315;46.072;14.474;2023-01-31T03:45:57;21.20;;;14.02;;
44606;SDS011;30315;46.072;14.474;2023-01-31T03:48:37;23.38;;;15.20;;
44606;SDS011;30315;46.072;14.474;2023-01-31T03:51:09;23.65;;;14.90;;
44606;SDS011;30315;46.072;14.474;2023-01-31T03:53:44;21.73;;;14.52;;
44606;SDS011;30315;46.072;14.474;2023-01-31T03:56:39;22.17;;;15.57;;
44606;SDS011;30315;46.072;14.474;2023-01-31T03:59:12;29.55;;;17.35;;
44606;SDS011;30315;46.072;14.474;2023-01-31T04:01:45;25.48;;;15.88;;
44606;SDS011;30315;46.072;14.474;2023-01-31T04:04:19;28.27;;;17.65;;
44606;SDS011;30315;46.072;14.474;2023-01-31T04:06:50;26.80;;;17.65;;
44606;SDS011;30315;46.072;14.474;2023-01-31T04:09:19;26.05;;;16.88;;
44606;SDS011;30315;46.072;14.474;2023-01-31T04:11:48;25.58;;;17.38;;
44606;SDS011;30315;46.072;14.474;2023-01-31T04:14:16;28.83;;;18.20;;
44606;SDS011;30315;46.072;14.474;2023-01-31T04:16:44;25.63;;;16.80;;
44606;SDS011;30315;46.072;14.474;2023-01-31T04:19:10;25.23;;;17.38;;
44606;SDS011;30315;46.072;14.474;2023-01-31T04:21:38;23.27;;;16.00;;
44606;SDS011;30315;46.072;14.474;2023-01-31T04:24:05;26.90;;;17.38;;
44606;SDS011;30315;46.072;14.474;2023-01-31T04:26:32;22.95;;;15.77;;
44606;SDS011;30315;46.072;14.474;2023-01-31T04:28:59;23.85;;;15.93;;
44606;SDS011;30315;46.072;14.474;2023-01-31T04:31:26;25.05;;;16.17;;
44606;SDS011;30315;46.072;14.474;2023-01-31T04:33:53;23.00;;;15.05;;
44606;SDS011;30315;46.072;14.474;2023-01-31T04:36:21;22.20;;;15.07;;
44606;SDS011;30315;46.072;14.474;2023-01-31T04:38:48;26.02;;;16.90;;
44606;SDS011;30315;46.072;14.474;2023-01-31T04:41:15;26.00;;;15.63;;
44606;SDS011;30315;46.072;14.474;2023-01-31T04:43:42;23.77;;;15.52;;
44606;SDS011;30315;46.072;14.474;2023-01-31T04:46:09;21.55;;;15.07;;
44606;SDS011;30315;46.072;14.474;2023-01-31T04:48:36;22.98;;;15.43;;
44606;SDS011;30315;46.072;14.474;2023-01-31T04:51:04;22.70;;;15.15;;
44606;SDS011;30315;46.072;14.474;2023-01-31T04:53:31;23.48;;;15.07;;
44606;SDS011;30315;46.072;14.474;2023-01-31T04:55:58;21.98;;;14.13;;
44606;SDS011;30315;46.072;14.474;2023-01-31T04:58:25;19.17;;;13.43;;
44606;SDS011;30315;46.072;14.474;2023-01-31T05:00:52;20.45;;;14.88;;
44606;SDS011;30315;46.072;14.474;2023-01-31T05:03:20;21.00;;;13.68;;
44606;SDS011;30315;46.072;14.474;2023-01-31T05:05:47;18.33;;;13.05;;
44606;SDS011;30315;46.072;14.474;2023-01-31T05:08:14;21.05;;;14.20;;
44606;SDS011;30315;46.072;14.474;2023-01-31T05:10:41;19.30;;;13.68;;
44606;SDS011;30315;46.072;14.474;2023-01-31T05:13:09;21.27;;;14.05;;
44606;SDS011;30315;46.072;14.474;2023-01-31T05:15:36;21.08;;;14.00;;
44606;SDS011;30315;46.072;14.474;2023-01-31T05:18:05;21.58;;;14.80;;
44606;SDS011;30315;46.072;14.474;2023-01-31T05:20:34;20.55;;;13.10;;
44606;SDS011;30315;46.072;14.474;2023-01-31T05:23:05;20.30;;;13.48;;
44606;SDS011;30315;46.072;14.474;2023-01-31T05:25:33;19.00;;;13.10;;
44606;SDS011;30315;46.072;14.474;2023-01-31T05:30:30;17.80;;;12.75;;
44606;SDS011;30315;46.072;14.474;2023-01-31T05:32:58;17.80;;;10.85;;
44606;SDS011;30315;46.072;14.474;2023-01-31T05:35:24;13.90;;;9.70;;
44606;SDS011;30315;46.072;14.474;2023-01-31T05:37:52;17.42;;;11.45;;
44606;SDS011;30315;46.072;14.474;2023-01-31T05:40:20;18.42;;;12.25;;
44606;SDS011;30315;46.072;14.474;2023-01-31T05:42:57;21.38;;;13.45;;
44606;SDS011;30315;46.072;14.474;2023-01-31T05:45:28;19.02;;;13.32;;
44606;SDS011;30315;46.072;14.474;2023-01-31T05:47:56;20.48;;;13.93;;
44606;SDS011;30315;46.072;14.474;2023-01-31T05:50:23;22.65;;;14.38;;
44606;SDS011;30315;46.072;14.474;2023-01-31T05:52:51;21.27;;;14.23;;
44606;SDS011;30315;46.072;14.474;2023-01-31T05:55:20;20.52;;;14.80;;
44606;SDS011;30315;46.072;14.474;2023-01-31T05:57:48;23.98;;;16.10;;
44606;SDS011;30315;46.072;14.474;2023-01-31T06:00:15;19.85;;;14.02;;
44606;SDS011;30315;46.072;14.474;2023-01-31T06:02:42;23.70;;;15.38;;
44606;SDS011;30315;46.072;14.474;2023-01-31T06:05:10;21.83;;;13.95;;
44606;SDS011;30315;46.072;14.474;2023-01-31T06:07:37;25.88;;;14.48;;
44606;SDS011;30315;46.072;14.474;2023-01-31T06:10:05;24.88;;;15.55;;
44606;SDS011;30315;46.072;14.474;2023-01-31T06:12:33;21.07;;;13.90;;
44606;SDS011;30315;46.072;14.474;2023-01-31T06:15:02;22.40;;;14.30;;
44606;SDS011;30315;46.072;14.474;2023-01-31T06:17:29;21.08;;;13.63;;
44606;SDS011;30315;46.072;14.474;2023-01-31T06:19:56;22.58;;;14.88;;
44606;SDS011;30315;46.072;14.474;2023-01-31T06:22:24;20.48;;;14.43;;
44606;SDS011;30315;46.072;14.474;2023-01-31T06:24:51;20.50;;;14.10;;
44606;SDS011;30315;46.072;14.474;2023-01-31T06:27:18;20.63;;;13.38;;
44606;SDS011;30315;46.072;14.474;2023-01-31T06:29:45;20.63;;;14.35;;
44606;SDS011;30315;46.072;14.474;2023-01-31T06:32:12;22.60;;;14.63;;
44606;SDS011;30315;46.072;14.474;2023-01-31T06:34:39;23.67;;;14.90;;
44606;SDS011;30315;46.072;14.474;2023-01-31T06:37:09;23.23;;;15.07;;
44606;SDS011;30315;46.072;14.474;2023-01-31T06:39:36;22.25;;;13.75;;
44606;SDS011;30315;46.072;14.474;2023-01-31T06:42:03;25.35;;;14.10;;
44606;SDS011;30315;46.072;14.474;2023-01-31T06:44:30;22.48;;;14.90;;
44606;SDS011;30315;46.072;14.474;2023-01-31T06:46:59;18.67;;;14.13;;
44606;SDS011;30315;46.072;14.474;2023-01-31T06:49:26;24.40;;;15.48;;
44606;SDS011;30315;46.072;14.474;2023-01-31T06:51:54;21.50;;;15.32;;
44606;SDS011;30315;46.072;14.474;2023-01-31T06:54:21;24.88;;;17.25;;
44606;SDS011;30315;46.072;14.474;2023-01-31T06:56:47;24.02;;;17.35;;
44606;SDS011;30315;46.072;14.474;2023-01-31T06:59:14;24.90;;;16.77;;
44606;SDS011;30315;46.072;14.474;2023-01-31T07:01:41;24.17;;;16.65;;
44606;SDS011;30315;46.072;14.474;2023-01-31T07:04:08;19.48;;;14.77;;
44606;SDS011;30315;46.072;14.474;2023-01-31T07:06:37;25.05;;;13.77;;
44606;SDS011;30315;46.072;14.474;2023-01-31T07:09:06;24.38;;;14.85;;
44606;SDS011;30315;46.072;14.474;2023-01-31T07:11:37;20.92;;;14.10;;
44606;SDS011;30315;46.072;14.474;2023-01-31T07:14:04;19.70;;;13.68;;
44606;SDS011;30315;46.072;14.474;2023-01-31T07:16:34;19.70;;;13.27;;
44606;SDS011;30315;46.072;14.474;2023-01-31T07:19:03;17.95;;;11.30;;
44606;SDS011;30315;46.072;14.474;2023-01-31T07:21:33;22.48;;;12.27;;
44606;SDS011;30315;46.072;14.474;2023-01-31T07:24:02;19.85;;;12.70;;
44606;SDS011;30315;46.072;14.474;2023-01-31T07:26:29;18.05;;;12.20;;
44606;SDS011;30315;46.072;14.474;2023-01-31T07:28:56;17.30;;;11.27;;
44606;SDS011;30315;46.072;14.474;2023-01-31T07:31:26;18.80;;;13.23;;
44606;SDS011;30315;46.072;14.474;2023-01-31T07:33:53;19.05;;;12.57;;
44606;SDS011;30315;46.072;14.474;2023-01-31T07:36:20;16.08;;;12.30;;
44606;SDS011;30315;46.072;14.474;2023-01-31T07:38:52;19.45;;;13.18;;
44606;SDS011;30315;46.072;14.474;2023-01-31T07:41:21;22.88;;;13.57;;
44606;SDS011;30315;46.072;14.474;2023-01-31T07:43:51;20.60;;;12.80;;
44606;SDS011;30315;46.072;14.474;2023-01-31T07:46:18;19.38;;;13.23;;
44606;SDS011;30315;46.072;14.474;2023-01-31T07:48:45;17.20;;;12.02;;
44606;SDS011;30315;46.072;14.474;2023-01-31T07:51:12;21.77;;;13.20;;
44606;SDS011;30315;46.072;14.474;2023-01-31T07:53:40;15.93;;;12.48;;
44606;SDS011;30315;46.072;14.474;2023-01-31T07:56:09;17.05;;;12.27;;
44606;SDS011;30315;46.072;14.474;2023-01-31T07:58:38;17.83;;;12.68;;
44606;SDS011;30315;46.072;14.474;2023-01-31T08:01:06;17.75;;;12.15;;
44606;SDS011;30315;46.072;14.474;2023-01-31T08:03:55;22.10;;;13.93;;
44606;SDS011;30315;46.072;14.474;2023-01-31T08:06:24;37.55;;;20.58;;
44606;SDS011;30315;46.072;14.474;2023-01-31T08:08:55;35.33;;;18.33;;
44606;SDS011;30315;46.072;14.474;2023-01-31T08:11:28;25.85;;;15.48;;
44606;SDS011;30315;46.072;14.474;2023-01-31T08:13:58;16.75;;;11.32;;
44606;SDS011;30315;46.072;14.474;2023-01-31T08:24:55;13.27;;;10.23;;
44606;SDS011;30315;46.072;14.474;2023-01-31T08:27:22;16.88;;;10.88;;
44606;SDS011;30315;46.072;14.474;2023-01-31T08:29:49;13.48;;;10.27;;
44606;SDS011;30315;46.072;14.474;2023-01-31T08:32:16;17.58;;;11.10;;
44606;SDS011;30315;46.072;14.474;2023-01-31T08:34:43;18.10;;;12.02;;
44606;SDS011;30315;46.072;14.474;2023-01-31T08:37:10;15.43;;;10.95;;
44606;SDS011;30315;46.072;14.474;2023-01-31T08:39:37;15.05;;;10.75;;
44606;SDS011;30315;46.072;14.474;2023-01-31T08:42:04;17.05;;;11.50;;
44606;SDS011;30315;46.072;14.474;2023-01-31T08:44:31;17.88;;;11.50;;
44606;SDS011;30315;46.072;14.474;2023-01-31T08:47:02;15.38;;;10.30;;
44606;SDS011;30315;46.072;14.474;2023-01-31T08:49:29;15.80;;;10.63;;
44606;SDS011;30315;46.072;14.474;2023-01-31T08:51:56;14.80;;;11.30;;
44606;SDS011;30315;46.072;14.474;2023-01-31T08:54:23;15.88;;;11.32;;
44606;SDS011;30315;46.072;14.474;2023-01-31T08:56:50;17.58;;;11.77;;
44606;SDS011;30315;46.072;14.474;2023-01-31T08:59:17;17.90;;;10.65;;
44606;SDS011;30315;46.072;14.474;2023-01-31T09:01:44;15.00;;;11.40;;
44606;SDS011;30315;46.072;14.474;2023-01-31T09:04:12;15.15;;;10.80;;
44606;SDS011;30315;46.072;14.474;2023-01-31T09:06:39;14.13;;;10.43;;
44606;SDS011;30315;46.072;14.474;2023-01-31T09:09:06;14.35;;;10.15;;
44606;SDS011;30315;46.072;14.474;2023-01-31T09:11:33;11.20;;;9.55;;
44606;SDS011;30315;46.072;14.474;2023-01-31T09:14:01;13.15;;;9.90;;
44606;SDS011;30315;46.072;14.474;2023-01-31T09:16:28;12.90;;;10.38;;
44606;SDS011;30315;46.072;14.474;2023-01-31T09:18:55;18.83;;;12.43;;
44606;SDS011;30315;46.072;14.474;2023-01-31T09:21:22;18.90;;;12.45;;
44606;SDS011;30315;46.072;14.474;2023-01-31T09:23:53;15.52;;;11.35;;
44606;SDS011;30315;46.072;14.474;2023-01-31T09:26:21;14.00;;;9.43;;
44606;SDS011;30315;46.072;14.474;2023-01-31T09:28:49;15.80;;;9.95;;
44606;SDS011;30315;46.072;14.474;2023-01-31T09:31:17;15.20;;;9.77;;
44606;SDS011;30315;46.072;14.474;2023-01-31T09:33:48;12.63;;;9.30;;
44606;SDS011;30315;46.072;14.474;2023-01-31T09:36:16;15.68;;;10.27;;
44606;SDS011;30315;46.072;14.474;2023-01-31T09:38:45;15.38;;;10.30;;
44606;SDS011;30315;46.072;14.474;2023-01-31T09:41:22;14.70;;;10.65;;
44606;SDS011;30315;46.072;14.474;2023-01-31T09:44:03;17.98;;;11.05;;
44606;SDS011;30315;46.072;14.474;2023-01-31T09:46:41;16.02;;;11.23;;
44606;SDS011;30315;46.072;14.474;2023-01-31T09:49:19;16.85;;;11.48;;
44606;SDS011;30315;46.072;14.474;2023-01-31T09:52:00;15.80;;;10.73;;
44606;SDS011;30315;46.072;14.474;2023-01-31T09:54:33;17.10;;;10.80;;
44606;SDS011;30315;46.072;14.474;2023-01-31T09:57:37;17.63;;;11.10;;
44606;SDS011;30315;46.072;14.474;2023-01-31T10:03:17;18.10;;;10.80;;
44606;SDS011;30315;46.072;14.474;2023-01-31T10:06:09;15.05;;;10.02;;
44606;SDS011;30315;46.072;14.474;2023-01-31T10:09:06;17.35;;;10.57;;
44606;SDS011;30315;46.072;14.474;2023-01-31T10:11:48;17.58;;;10.25;;
44606;SDS011;30315;46.072;14.474;2023-01-31T10:14:34;12.18;;;8.82;;
44606;SDS011;30315;46.072;14.474;2023-01-31T10:17:12;11.95;;;8.18;;
44606;SDS011;30315;46.072;14.474;2023-01-31T10:19:42;11.80;;;8.30;;
44606;SDS011;30315;46.072;14.474;2023-01-31T10:22:17;9.77;;;7.32;;
44606;SDS011;30315;46.072;14.474;2023-01-31T10:25:03;10.93;;;8.15;;
44606;SDS011;30315;46.072;14.474;2023-01-31T10:27:44;11.48;;;7.50;;
44606;SDS011;30315;46.072;14.474;2023-01-31T10:30:20;10.07;;;8.25;;
44606;SDS011;30315;46.072;14.474;2023-01-31T10:32:52;11.40;;;7.88;;
44606;SDS011;30315;46.072;14.474;2023-01-31T10:35:34;12.73;;;8.10;;
44606;SDS011;30315;46.072;14.474;2023-01-31T10:38:11;16.80;;;8.32;;
44606;SDS011;30315;46.072;14.474;2023-01-31T10:40:43;10.98;;;7.82;;
44606;SDS011;30315;46.072;14.474;2023-01-31T10:45:46;9.55;;;8.02;;
44606;SDS011;30315;46.072;14.474;2023-01-31T10:48:17;9.75;;;6.75;;
44606;SDS011;30315;46.072;14.474;2023-01-31T10:50:51;10.65;;;7.32;;
44606;SDS011;30315;46.072;14.474;2023-01-31T10:53:47;10.07;;;7.25;;
44606;SDS011;30315;46.072;14.474;2023-01-31T10:56:31;14.65;;;7.63;;
44606;SDS011;30315;46.072;14.474;2023-01-31T10:58:59;10.65;;;7.38;;
44606;SDS011;30315;46.072;14.474;2023-01-31T11:01:27;13.90;;;6.95;;
44606;SDS011;30315;46.072;14.474;2023-01-31T11:03:55;11.68;;;6.50;;
44606;SDS011;30315;46.072;14.474;2023-01-31T11:06:23;15.45;;;7.55;;
44606;SDS011;30315;46.072;14.474;2023-01-31T11:08:54;7.97;;;6.82;;
44606;SDS011;30315;46.072;14.474;2023-01-31T11:11:27;11.15;;;7.85;;
44606;SDS011;30315;46.072;14.474;2023-01-31T11:13:56;8.98;;;7.13;;
44606;SDS011;30315;46.072;14.474;2023-01-31T11:16:29;8.15;;;5.78;;
44606;SDS011;30315;46.072;14.474;2023-01-31T11:19:00;7.93;;;5.57;;
44606;SDS011;30315;46.072;14.474;2023-01-31T11:21:49;6.18;;;4.85;;
44606;SDS011;30315;46.072;14.474;2023-01-31T11:24:21;7.40;;;4.10;;
44606;SDS011;30315;46.072;14.474;2023-01-31T11:27:25;5.65;;;4.65;;
44606;SDS011;30315;46.072;14.474;2023-01-31T11:30:03;5.93;;;3.65;;
44606;SDS011;30315;46.072;14.474;2023-01-31T11:32:34;5.35;;;3.95;;
44606;SDS011;30315;46.072;14.474;2023-01-31T11:37:48;5.30;;;3.88;;
44606;SDS011;30315;46.072;14.474;2023-01-31T11:42:59;3.85;;;3.55;;
44606;SDS011;30315;46.072;14.474;2023-01-31T11:45:42;12.50;;;5.45;;
44606;SDS011;30315;46.072;14.474;2023-01-31T11:48:17;3.38;;;3.13;;
44606;SDS011;30315;46.072;14.474;2023-01-31T11:50:51;3.03;;;2.83;;
44606;SDS011;30315;46.072;14.474;2023-01-31T11:53:25;3.33;;;3.03;;
44606;SDS011;30315;46.072;14.474;2023-01-31T11:58:48;3.80;;;3.40;;
44606;SDS011;30315;46.072;14.474;2023-01-31T12:01:22;3.83;;;3.53;;
44606;SDS011;30315;46.072;14.474;2023-01-31T12:09:21;3.97;;;3.28;;
44606;SDS011;30315;46.072;14.474;2023-01-31T12:11:55;4.07;;;3.28;;
44606;SDS011;30315;46.072;14.474;2023-01-31T12:14:35;3.80;;;3.40;;
44606;SDS011;30315;46.072;14.474;2023-01-31T12:17:09;5.40;;;3.50;;
44606;SDS011;30315;46.072;14.474;2023-01-31T12:22:20;3.72;;;3.40;;
44606;SDS011;30315;46.072;14.474;2023-01-31T12:30:52;5.90;;;4.03;;
44606;SDS011;30315;46.072;14.474;2023-01-31T12:33:42;4.75;;;3.55;;
44606;SDS011;30315;46.072;14.474;2023-01-31T12:48:08;7.00;;;4.35;;
44606;SDS011;30315;46.072;14.474;2023-01-31T12:59:04;5.00;;;4.00;;
44606;SDS011;30315;46.072;14.474;2023-01-31T13:02:15;7.50;;;4.43;;
44606;SDS011;30315;46.072;14.474;2023-01-31T13:05:01;5.28;;;4.18;;
44606;SDS011;30315;46.072;14.474;2023-01-31T13:07:32;6.18;;;4.72;;
44606;SDS011;30315;46.072;14.474;2023-01-31T13:10:15;5.82;;;5.05;;
44606;SDS011;30315;46.072;14.474;2023-01-31T13:12:51;5.68;;;5.10;;
44606;SDS011;30315;46.072;14.474;2023-01-31T13:18:06;5.07;;;4.57;;
44606;SDS011;30315;46.072;14.474;2023-01-31T13:23:33;5.43;;;4.75;;
44606;SDS011;30315;46.072;14.474;2023-01-31T13:28:50;6.68;;;4.78;;
44606;SDS011;30315;46.072;14.474;2023-01-31T13:31:23;6.75;;;4.45;;
44606;SDS011;30315;46.072;14.474;2023-01-31T13:36:31;7.25;;;4.75;;
44606;SDS011;30315;46.072;14.474;2023-01-31T13:39:19;5.65;;;4.95;;
44606;SDS011;30315;46.072;14.474;2023-01-31T13:41:49;6.43;;;4.55;;
44606;SDS011;30315;46.072;14.474;2023-01-31T13:44:16;7.05;;;5.18;;
44606;SDS011;30315;46.072;14.474;2023-01-31T13:52:26;5.05;;;4.55;;
44606;SDS011;30315;46.072;14.474;2023-01-31T13:55:25;6.18;;;4.85;;
44606;SDS011;30315;46.072;14.474;2023-01-31T13:58:06;8.73;;;5.63;;
44606;SDS011;30315;46.072;14.474;2023-01-31T14:00:55;5.82;;;5.30;;
44606;SDS011;30315;46.072;14.474;2023-01-31T14:10:23;8.10;;;5.38;;
44606;SDS011;30315;46.072;14.474;2023-01-31T14:12:35;6.53;;;4.95;;
44606;SDS011;30315;46.072;14.474;2023-01-31T14:15:20;5.20;;;4.63;;
44606;SDS011;30315;46.072;14.474;2023-01-31T14:18:07;8.88;;;5.15;;
44606;SDS011;30315;46.072;14.474;2023-01-31T14:20:34;7.32;;;4.53;;
44606;SDS011;30315;46.072;14.474;2023-01-31T14:29:17;6.50;;;5.28;;
44606;SDS011;30315;46.072;14.474;2023-01-31T14:31:47;6.32;;;5.15;;
44606;SDS011;30315;46.072;14.474;2023-01-31T14:34:25;7.07;;;4.97;;
44606;SDS011;30315;46.072;14.474;2023-01-31T14:36:58;6.43;;;4.55;;
44606;SDS011;30315;46.072;14.474;2023-01-31T14:42:29;8.73;;;5.57;;
44606;SDS011;30315;46.072;14.474;2023-01-31T14:53:05;7.22;;;5.13;;
44606;SDS011;30315;46.072;14.474;2023-01-31T14:58:42;7.80;;;5.45;;
44606;SDS011;30315;46.072;14.474;2023-01-31T15:01:11;7.70;;;4.97;;
44606;SDS011;30315;46.072;14.474;2023-01-31T15:03:50;6.53;;;5.38;;
44606;SDS011;30315;46.072;14.474;2023-01-31T15:06:27;5.40;;;4.70;;
44606;SDS011;30315;46.072;14.474;2023-01-31T15:11:41;7.13;;;5.55;;
44606;SDS011;30315;46.072;14.474;2023-01-31T15:14:21;9.45;;;7.05;;
44606;SDS011;30315;46.072;14.474;2023-01-31T15:20:02;6.28;;;5.60;;
44606;SDS011;30315;46.072;14.474;2023-01-31T15:22:43;8.30;;;5.57;;
44606;SDS011;30315;46.072;14.474;2023-01-31T15:25:19;7.13;;;4.93;;
44606;SDS011;30315;46.072;14.474;2023-01-31T15:28:08;11.35;;;5.10;;
44606;SDS011;30315;46.072;14.474;2023-01-31T15:30:39;8.23;;;5.63;;
44606;SDS011;30315;46.072;14.474;2023-01-31T15:33:14;6.72;;;5.43;;
44606;SDS011;30315;46.072;14.474;2023-01-31T15:35:52;9.32;;;5.60;;
44606;SDS011;30315;46.072;14.474;2023-01-31T15:43:49;7.82;;;5.57;;
44606;SDS011;30315;46.072;14.474;2023-01-31T15:46:26;8.77;;;5.68;;
44606;SDS011;30315;46.072;14.474;2023-01-31T15:48:55;8.55;;;5.68;;
44606;SDS011;30315;46.072;14.474;2023-01-31T15:51:23;8.02;;;5.60;;
44606;SDS011;30315;46.072;14.474;2023-01-31T15:54:01;10.50;;;5.88;;
44606;SDS011;30315;46.072;14.474;2023-01-31T15:56:36;5.90;;;4.90;;
44606;SDS011;30315;46.072;14.474;2023-01-31T15:59:10;5.47;;;4.93;;
44606;SDS011;30315;46.072;14.474;2023-01-31T16:01:50;10.90;;;5.57;;
44606;SDS011;30315;46.072;14.474;2023-01-31T16:04:23;9.68;;;6.00;;
44606;SDS011;30315;46.072;14.474;2023-01-31T16:06:50;9.40;;;5.57;;
44606;SDS011;30315;46.072;14.474;2023-01-31T16:09:52;11.23;;;5.90;;
44606;SDS011;30315;46.072;14.474;2023-01-31T16:12:11;8.77;;;6.22;;
44606;SDS011;30315;46.072;14.474;2023-01-31T16:14:41;13.15;;;6.53;;
44606;SDS011;30315;46.072;14.474;2023-01-31T16:17:11;11.60;;;6.20;;
44606;SDS011;30315;46.072;14.474;2023-01-31T16:19:38;16.67;;;7.03;;
44606;SDS011;30315;46.072;14.474;2023-01-31T16:25:16;17.50;;;8.82;;
44606;SDS011;30315;46.072;14.474;2023-01-31T16:27:44;16.00;;;7.70;;
44606;SDS011;30315;46.072;14.474;2023-01-31T16:30:13;12.48;;;7.53;;
44606;SDS011;30315;46.072;14.474;2023-01-31T16:32:42;11.00;;;7.30;;
44606;SDS011;30315;46.072;14.474;2023-01-31T16:35:23;13.68;;;7.72;;
44606;SDS011;30315;46.072;14.474;2023-01-31T16:38:00;12.02;;;8.05;;
44606;SDS011;30315;46.072;14.474;2023-01-31T16:40:32;11.15;;;7.38;;
44606;SDS011;30315;46.072;14.474;2023-01-31T16:46:06;15.07;;;9.65;;
44606;SDS011;30315;46.072;14.474;2023-01-31T16:49:03;10.93;;;7.57;;
44606;SDS011;30315;46.072;14.474;2023-01-31T16:51:39;15.07;;;7.75;;
44606;SDS011;30315;46.072;14.474;2023-01-31T17:04:33;19.17;;;12.30;;
44606;SDS011;30315;46.072;14.474;2023-01-31T17:07:05;20.45;;;11.82;;
44606;SDS011;30315;46.072;14.474;2023-01-31T17:15:58;12.88;;;8.05;;
44606;SDS011;30315;46.072;14.474;2023-01-31T17:18:58;13.00;;;8.02;;
44606;SDS011;30315;46.072;14.474;2023-01-31T17:22:48;14.07;;;8.25;;
44606;SDS011;30315;46.072;14.474;2023-01-31T17:25:33;12.70;;;8.32;;
44606;SDS011;30315;46.072;14.474;2023-01-31T17:28:09;11.15;;;7.90;;
44606;SDS011;30315;46.072;14.474;2023-01-31T17:30:37;13.40;;;8.20;;
44606;SDS011;30315;46.072;14.474;2023-01-31T17:33:07;15.43;;;10.43;;
44606;SDS011;30315;46.072;14.474;2023-01-31T17:35:38;20.45;;;12.00;;
44606;SDS011;30315;46.072;14.474;2023-01-31T17:40:35;14.00;;;8.25;;